Terminal Aerodrome Forecast
Issued by NWS North Platte, NE

Home | Current Version | Previous Version | Text Only | Print | Product List | Glossary On
Versions: 1 2 3 4 5 6 7 8 9 10 11 12 13
000
FTUS43 KLBF 191133
TAFVTN
TAF
KVTN 191133Z 1912/2012 21006KT P6SM FEW250
      TEMPO 1912/1915 2SM BR
     FM201100 25006KT P6SM FEW200=

USA.gov is the U.S. government's official web portal to all federal, state and local government web resources and services.